sensor_id;sensor_type;location;lat;lon;timestamp;P1;durP1;ratioP1;P2;durP2;ratioP2
49626;SDS011;35527;54.616;39.786;2023-06-26T00:02:58;14.88;;;10.05;;
49626;SDS011;35527;54.616;39.786;2023-06-26T00:06:05;15.77;;;10.82;;
49626;SDS011;35527;54.616;39.786;2023-06-26T00:09:08;17.70;;;10.98;;
49626;SDS011;35527;54.616;39.786;2023-06-26T00:12:12;16.67;;;9.88;;
49626;SDS011;35527;54.616;39.786;2023-06-26T00:15:14;16.17;;;10.77;;
49626;SDS011;35527;54.616;39.786;2023-06-26T00:18:21;15.60;;;10.77;;
49626;SDS011;35527;54.616;39.786;2023-06-26T00:21:25;16.83;;;10.80;;
49626;SDS011;35527;54.616;39.786;2023-06-26T00:24:34;16.75;;;10.35;;
49626;SDS011;35527;54.616;39.786;2023-06-26T00:27:36;15.45;;;9.70;;
49626;SDS011;35527;54.616;39.786;2023-06-26T00:30:43;15.50;;;9.23;;
49626;SDS011;35527;54.616;39.786;2023-06-26T00:33:45;14.13;;;9.63;;
49626;SDS011;35527;54.616;39.786;2023-06-26T00:36:49;12.75;;;9.45;;
49626;SDS011;35527;54.616;39.786;2023-06-26T00:39:52;13.63;;;8.88;;
49626;SDS011;35527;54.616;39.786;2023-06-26T00:42:57;11.95;;;8.80;;
49626;SDS011;35527;54.616;39.786;2023-06-26T00:46:00;12.70;;;8.95;;
49626;SDS011;35527;54.616;39.786;2023-06-26T00:49:05;12.67;;;9.60;;
49626;SDS011;35527;54.616;39.786;2023-06-26T00:52:08;12.32;;;8.68;;
49626;SDS011;35527;54.616;39.786;2023-06-26T00:55:13;14.18;;;8.70;;
49626;SDS011;35527;54.616;39.786;2023-06-26T00:58:18;13.80;;;9.38;;
49626;SDS011;35527;54.616;39.786;2023-06-26T01:01:22;13.05;;;9.05;;
49626;SDS011;35527;54.616;39.786;2023-06-26T01:04:27;14.23;;;9.57;;
49626;SDS011;35527;54.616;39.786;2023-06-26T01:07:35;13.98;;;9.93;;
49626;SDS011;35527;54.616;39.786;2023-06-26T01:10:40;12.95;;;9.20;;
49626;SDS011;35527;54.616;39.786;2023-06-26T01:13:47;16.08;;;9.90;;
49626;SDS011;35527;54.616;39.786;2023-06-26T01:16:53;15.52;;;9.52;;
49626;SDS011;35527;54.616;39.786;2023-06-26T01:20:01;16.60;;;9.80;;
49626;SDS011;35527;54.616;39.786;2023-06-26T01:26:20;19.45;;;10.80;;
49626;SDS011;35527;54.616;39.786;2023-06-26T01:29:23;15.85;;;10.15;;
49626;SDS011;35527;54.616;39.786;2023-06-26T01:32:29;17.55;;;10.45;;
49626;SDS011;35527;54.616;39.786;2023-06-26T01:35:34;18.17;;;11.00;;
49626;SDS011;35527;54.616;39.786;2023-06-26T01:38:40;15.40;;;10.45;;
49626;SDS011;35527;54.616;39.786;2023-06-26T01:41:43;16.20;;;10.40;;
49626;SDS011;35527;54.616;39.786;2023-06-26T01:44:48;15.52;;;10.25;;
49626;SDS011;35527;54.616;39.786;2023-06-26T01:47:52;16.50;;;10.77;;
49626;SDS011;35527;54.616;39.786;2023-06-26T01:51:03;18.15;;;10.73;;
49626;SDS011;35527;54.616;39.786;2023-06-26T01:54:11;18.60;;;11.15;;
49626;SDS011;35527;54.616;39.786;2023-06-26T01:57:20;15.13;;;10.27;;
49626;SDS011;35527;54.616;39.786;2023-06-26T02:00:28;19.65;;;10.85;;
49626;SDS011;35527;54.616;39.786;2023-06-26T02:03:31;15.32;;;9.65;;
49626;SDS011;35527;54.616;39.786;2023-06-26T02:06:34;17.58;;;10.68;;
49626;SDS011;35527;54.616;39.786;2023-06-26T02:09:42;16.98;;;11.20;;
49626;SDS011;35527;54.616;39.786;2023-06-26T02:12:46;17.63;;;10.95;;
49626;SDS011;35527;54.616;39.786;2023-06-26T02:15:54;17.60;;;11.05;;
49626;SDS011;35527;54.616;39.786;2023-06-26T02:18:57;14.93;;;10.38;;
49626;SDS011;35527;54.616;39.786;2023-06-26T02:22:02;17.27;;;10.95;;
49626;SDS011;35527;54.616;39.786;2023-06-26T02:25:05;15.63;;;10.95;;
49626;SDS011;35527;54.616;39.786;2023-06-26T02:28:12;14.60;;;10.35;;
49626;SDS011;35527;54.616;39.786;2023-06-26T02:31:14;14.65;;;10.07;;
49626;SDS011;35527;54.616;39.786;2023-06-26T02:34:19;15.23;;;10.88;;
49626;SDS011;35527;54.616;39.786;2023-06-26T02:37:22;18.70;;;11.55;;
49626;SDS011;35527;54.616;39.786;2023-06-26T02:40:28;17.77;;;10.93;;
49626;SDS011;35527;54.616;39.786;2023-06-26T02:43:30;16.80;;;11.20;;
49626;SDS011;35527;54.616;39.786;2023-06-26T02:46:35;15.63;;;11.32;;
49626;SDS011;35527;54.616;39.786;2023-06-26T02:49:39;17.48;;;11.60;;
49626;SDS011;35527;54.616;39.786;2023-06-26T02:52:45;20.05;;;11.20;;
49626;SDS011;35527;54.616;39.786;2023-06-26T02:55:50;16.50;;;11.00;;
49626;SDS011;35527;54.616;39.786;2023-06-26T02:58:53;19.98;;;11.38;;
49626;SDS011;35527;54.616;39.786;2023-06-26T03:01:58;16.10;;;11.00;;
49626;SDS011;35527;54.616;39.786;2023-06-26T03:05:10;17.48;;;10.88;;
49626;SDS011;35527;54.616;39.786;2023-06-26T03:08:13;15.23;;;10.82;;
49626;SDS011;35527;54.616;39.786;2023-06-26T03:11:16;17.05;;;11.63;;
49626;SDS011;35527;54.616;39.786;2023-06-26T03:14:20;17.70;;;10.88;;
49626;SDS011;35527;54.616;39.786;2023-06-26T03:17:29;15.93;;;10.73;;
49626;SDS011;35527;54.616;39.786;2023-06-26T03:20:38;15.15;;;10.85;;
49626;SDS011;35527;54.616;39.786;2023-06-26T03:23:41;13.52;;;9.98;;
49626;SDS011;35527;54.616;39.786;2023-06-26T03:26:44;11.55;;;9.27;;
49626;SDS011;35527;54.616;39.786;2023-06-26T03:30:14;13.68;;;9.95;;
49626;SDS011;35527;54.616;39.786;2023-06-26T03:33:26;13.88;;;9.32;;
49626;SDS011;35527;54.616;39.786;2023-06-26T03:36:31;12.52;;;9.48;;
49626;SDS011;35527;54.616;39.786;2023-06-26T03:39:34;13.32;;;9.55;;
49626;SDS011;35527;54.616;39.786;2023-06-26T03:42:39;13.48;;;10.15;;
49626;SDS011;35527;54.616;39.786;2023-06-26T03:45:45;15.48;;;9.00;;
49626;SDS011;35527;54.616;39.786;2023-06-26T03:48:52;14.13;;;9.70;;
49626;SDS011;35527;54.616;39.786;2023-06-26T03:51:55;13.27;;;10.50;;
49626;SDS011;35527;54.616;39.786;2023-06-26T03:54:58;12.98;;;9.65;;
49626;SDS011;35527;54.616;39.786;2023-06-26T03:58:04;10.63;;;7.85;;
49626;SDS011;35527;54.616;39.786;2023-06-26T04:01:12;9.55;;;8.00;;
49626;SDS011;35527;54.616;39.786;2023-06-26T04:07:22;11.83;;;7.00;;
49626;SDS011;35527;54.616;39.786;2023-06-26T04:10:26;12.10;;;7.95;;
49626;SDS011;35527;54.616;39.786;2023-06-26T04:13:30;10.77;;;7.90;;
49626;SDS011;35527;54.616;39.786;2023-06-26T04:16:34;11.60;;;7.50;;
49626;SDS011;35527;54.616;39.786;2023-06-26T04:19:37;10.75;;;7.40;;
49626;SDS011;35527;54.616;39.786;2023-06-26T04:26:10;12.95;;;8.05;;
49626;SDS011;35527;54.616;39.786;2023-06-26T04:29:16;10.70;;;7.70;;
49626;SDS011;35527;54.616;39.786;2023-06-26T04:32:20;11.07;;;7.65;;
49626;SDS011;35527;54.616;39.786;2023-06-26T04:35:23;10.43;;;7.78;;
49626;SDS011;35527;54.616;39.786;2023-06-26T04:38:26;10.73;;;7.10;;
49626;SDS011;35527;54.616;39.786;2023-06-26T04:41:29;10.23;;;7.30;;
49626;SDS011;35527;54.616;39.786;2023-06-26T04:44:32;9.82;;;7.07;;
49626;SDS011;35527;54.616;39.786;2023-06-26T04:50:45;9.93;;;7.00;;
49626;SDS011;35527;54.616;39.786;2023-06-26T04:53:56;8.95;;;6.40;;
49626;SDS011;35527;54.616;39.786;2023-06-26T04:57:00;9.20;;;6.10;;
49626;SDS011;35527;54.616;39.786;2023-06-26T05:00:04;9.15;;;6.82;;
49626;SDS011;35527;54.616;39.786;2023-06-26T05:03:13;9.85;;;6.78;;
49626;SDS011;35527;54.616;39.786;2023-06-26T05:06:17;10.32;;;6.50;;
49626;SDS011;35527;54.616;39.786;2023-06-26T05:09:19;7.65;;;6.32;;
49626;SDS011;35527;54.616;39.786;2023-06-26T05:12:23;9.85;;;6.82;;
49626;SDS011;35527;54.616;39.786;2023-06-26T05:15:27;9.73;;;6.35;;
49626;SDS011;35527;54.616;39.786;2023-06-26T05:18:32;8.00;;;6.25;;
49626;SDS011;35527;54.616;39.786;2023-06-26T05:21:35;8.48;;;6.43;;
49626;SDS011;35527;54.616;39.786;2023-06-26T05:27:42;10.70;;;6.32;;
49626;SDS011;35527;54.616;39.786;2023-06-26T05:30:46;9.15;;;6.32;;
49626;SDS011;35527;54.616;39.786;2023-06-26T05:36:58;7.05;;;5.63;;
49626;SDS011;35527;54.616;39.786;2023-06-26T05:40:08;8.27;;;6.20;;
49626;SDS011;35527;54.616;39.786;2023-06-26T05:43:11;9.77;;;6.00;;
49626;SDS011;35527;54.616;39.786;2023-06-26T05:46:15;11.15;;;6.53;;
49626;SDS011;35527;54.616;39.786;2023-06-26T05:49:20;8.32;;;5.57;;
49626;SDS011;35527;54.616;39.786;2023-06-26T05:52:24;8.25;;;6.10;;
49626;SDS011;35527;54.616;39.786;2023-06-26T05:55:27;8.02;;;5.93;;
49626;SDS011;35527;54.616;39.786;2023-06-26T05:58:30;7.90;;;5.60;;
49626;SDS011;35527;54.616;39.786;2023-06-26T06:01:34;7.57;;;5.30;;
49626;SDS011;35527;54.616;39.786;2023-06-26T06:04:39;6.40;;;5.20;;
49626;SDS011;35527;54.616;39.786;2023-06-26T06:07:43;6.93;;;5.15;;
49626;SDS011;35527;54.616;39.786;2023-06-26T06:10:45;7.47;;;5.40;;
49626;SDS011;35527;54.616;39.786;2023-06-26T06:13:50;6.20;;;4.57;;
49626;SDS011;35527;54.616;39.786;2023-06-26T06:16:54;5.75;;;4.30;;
49626;SDS011;35527;54.616;39.786;2023-06-26T06:19:57;6.13;;;4.17;;
49626;SDS011;35527;54.616;39.786;2023-06-26T06:23:01;8.07;;;4.70;;
49626;SDS011;35527;54.616;39.786;2023-06-26T06:26:05;6.28;;;4.75;;
49626;SDS011;35527;54.616;39.786;2023-06-26T06:29:08;7.55;;;4.70;;
49626;SDS011;35527;54.616;39.786;2023-06-26T06:32:11;5.55;;;4.15;;
49626;SDS011;35527;54.616;39.786;2023-06-26T06:35:14;7.53;;;4.82;;
49626;SDS011;35527;54.616;39.786;2023-06-26T06:38:17;7.03;;;4.68;;
49626;SDS011;35527;54.616;39.786;2023-06-26T06:41:20;6.55;;;4.75;;
49626;SDS011;35527;54.616;39.786;2023-06-26T06:44:23;5.85;;;4.45;;
49626;SDS011;35527;54.616;39.786;2023-06-26T06:47:29;5.85;;;4.50;;
49626;SDS011;35527;54.616;39.786;2023-06-26T06:53:36;7.82;;;4.10;;
49626;SDS011;35527;54.616;39.786;2023-06-26T06:56:38;8.95;;;4.60;;
49626;SDS011;35527;54.616;39.786;2023-06-26T06:59:42;6.20;;;4.30;;
49626;SDS011;35527;54.616;39.786;2023-06-26T07:05:48;6.00;;;4.20;;
49626;SDS011;35527;54.616;39.786;2023-06-26T07:08:51;7.82;;;4.50;;
49626;SDS011;35527;54.616;39.786;2023-06-26T07:11:55;5.45;;;4.13;;
49626;SDS011;35527;54.616;39.786;2023-06-26T07:15:00;5.80;;;4.07;;
49626;SDS011;35527;54.616;39.786;2023-06-26T07:18:05;5.70;;;4.00;;
49626;SDS011;35527;54.616;39.786;2023-06-26T07:21:10;5.80;;;3.97;;
49626;SDS011;35527;54.616;39.786;2023-06-26T07:24:15;5.65;;;4.00;;
49626;SDS011;35527;54.616;39.786;2023-06-26T07:27:18;6.50;;;3.72;;
49626;SDS011;35527;54.616;39.786;2023-06-26T07:30:24;5.20;;;3.92;;
49626;SDS011;35527;54.616;39.786;2023-06-26T07:33:27;6.00;;;4.05;;
49626;SDS011;35527;54.616;39.786;2023-06-26T07:36:32;7.38;;;3.63;;
49626;SDS011;35527;54.616;39.786;2023-06-26T07:39:36;5.07;;;3.50;;
49626;SDS011;35527;54.616;39.786;2023-06-26T07:42:39;4.95;;;3.63;;
49626;SDS011;35527;54.616;39.786;2023-06-26T07:45:42;5.40;;;4.00;;
49626;SDS011;35527;54.616;39.786;2023-06-26T07:48:46;5.18;;;3.90;;
49626;SDS011;35527;54.616;39.786;2023-06-26T07:51:48;5.70;;;3.67;;
49626;SDS011;35527;54.616;39.786;2023-06-26T07:54:53;6.53;;;4.00;;
49626;SDS011;35527;54.616;39.786;2023-06-26T07:57:57;6.55;;;3.67;;
49626;SDS011;35527;54.616;39.786;2023-06-26T08:01:02;5.00;;;3.50;;
49626;SDS011;35527;54.616;39.786;2023-06-26T08:04:05;6.25;;;3.38;;
49626;SDS011;35527;54.616;39.786;2023-06-26T08:07:08;5.07;;;3.80;;
49626;SDS011;35527;54.616;39.786;2023-06-26T08:10:11;5.95;;;3.90;;
49626;SDS011;35527;54.616;39.786;2023-06-26T08:13:20;5.90;;;4.03;;
49626;SDS011;35527;54.616;39.786;2023-06-26T08:16:22;5.85;;;3.70;;
49626;SDS011;35527;54.616;39.786;2023-06-26T08:19:26;5.63;;;3.60;;
49626;SDS011;35527;54.616;39.786;2023-06-26T08:22:29;6.88;;;3.90;;
49626;SDS011;35527;54.616;39.786;2023-06-26T08:25:38;6.28;;;3.42;;
49626;SDS011;35527;54.616;39.786;2023-06-26T08:28:40;7.63;;;3.92;;
49626;SDS011;35527;54.616;39.786;2023-06-26T08:31:46;6.88;;;3.70;;
49626;SDS011;35527;54.616;39.786;2023-06-26T08:34:49;5.43;;;3.70;;
49626;SDS011;35527;54.616;39.786;2023-06-26T08:37:53;6.38;;;3.70;;
49626;SDS011;35527;54.616;39.786;2023-06-26T08:40:57;5.32;;;3.60;;
49626;SDS011;35527;54.616;39.786;2023-06-26T08:44:02;5.57;;;3.40;;
49626;SDS011;35527;54.616;39.786;2023-06-26T08:47:07;5.50;;;3.80;;
49626;SDS011;35527;54.616;39.786;2023-06-26T08:50:17;7.25;;;3.80;;
49626;SDS011;35527;54.616;39.786;2023-06-26T08:53:29;5.15;;;4.00;;
49626;SDS011;35527;54.616;39.786;2023-06-26T08:56:40;6.68;;;3.72;;
49626;SDS011;35527;54.616;39.786;2023-06-26T08:59:49;5.75;;;3.78;;
49626;SDS011;35527;54.616;39.786;2023-06-26T09:02:55;7.55;;;3.92;;
49626;SDS011;35527;54.616;39.786;2023-06-26T09:05:58;5.30;;;3.70;;
49626;SDS011;35527;54.616;39.786;2023-06-26T09:09:06;6.43;;;3.78;;
49626;SDS011;35527;54.616;39.786;2023-06-26T09:12:12;6.63;;;3.85;;
49626;SDS011;35527;54.616;39.786;2023-06-26T09:15:20;5.63;;;4.18;;
49626;SDS011;35527;54.616;39.786;2023-06-26T09:18:23;6.32;;;4.00;;
49626;SDS011;35527;54.616;39.786;2023-06-26T09:21:32;5.63;;;3.85;;
49626;SDS011;35527;54.616;39.786;2023-06-26T09:24:37;5.85;;;3.92;;
49626;SDS011;35527;54.616;39.786;2023-06-26T09:27:40;5.90;;;4.05;;
49626;SDS011;35527;54.616;39.786;2023-06-26T09:30:45;5.63;;;3.90;;
49626;SDS011;35527;54.616;39.786;2023-06-26T09:33:58;6.38;;;3.63;;
49626;SDS011;35527;54.616;39.786;2023-06-26T09:37:05;6.00;;;3.95;;
49626;SDS011;35527;54.616;39.786;2023-06-26T09:40:08;5.57;;;3.90;;
49626;SDS011;35527;54.616;39.786;2023-06-26T09:43:12;4.90;;;3.63;;
49626;SDS011;35527;54.616;39.786;2023-06-26T09:46:27;6.03;;;4.20;;
49626;SDS011;35527;54.616;39.786;2023-06-26T09:49:33;5.80;;;4.13;;
49626;SDS011;35527;54.616;39.786;2023-06-26T09:52:37;7.93;;;4.28;;
49626;SDS011;35527;54.616;39.786;2023-06-26T09:55:44;6.35;;;4.22;;
49626;SDS011;35527;54.616;39.786;2023-06-26T09:58:49;7.90;;;4.72;;
49626;SDS011;35527;54.616;39.786;2023-06-26T10:01:58;6.07;;;4.07;;
49626;SDS011;35527;54.616;39.786;2023-06-26T10:05:01;6.45;;;4.15;;
49626;SDS011;35527;54.616;39.786;2023-06-26T10:08:04;6.88;;;4.75;;
49626;SDS011;35527;54.616;39.786;2023-06-26T10:11:13;5.70;;;4.05;;
49626;SDS011;35527;54.616;39.786;2023-06-26T10:14:21;6.13;;;4.10;;
49626;SDS011;35527;54.616;39.786;2023-06-26T10:17:30;5.40;;;3.63;;
49626;SDS011;35527;54.616;39.786;2023-06-26T10:20:37;6.43;;;3.83;;
49626;SDS011;35527;54.616;39.786;2023-06-26T10:23:41;6.05;;;3.53;;
49626;SDS011;35527;54.616;39.786;2023-06-26T10:26:50;5.78;;;3.72;;
49626;SDS011;35527;54.616;39.786;2023-06-26T10:30:00;5.57;;;3.25;;
49626;SDS011;35527;54.616;39.786;2023-06-26T10:33:06;5.43;;;3.17;;
49626;SDS011;35527;54.616;39.786;2023-06-26T10:36:14;6.32;;;3.05;;
49626;SDS011;35527;54.616;39.786;2023-06-26T10:39:25;4.63;;;2.80;;
49626;SDS011;35527;54.616;39.786;2023-06-26T10:42:33;5.63;;;3.10;;
49626;SDS011;35527;54.616;39.786;2023-06-26T10:45:43;4.85;;;2.92;;
49626;SDS011;35527;54.616;39.786;2023-06-26T10:48:57;4.97;;;3.05;;
49626;SDS011;35527;54.616;39.786;2023-06-26T10:52:06;5.68;;;3.58;;
49626;SDS011;35527;54.616;39.786;2023-06-26T10:55:09;5.50;;;3.58;;
49626;SDS011;35527;54.616;39.786;2023-06-26T11:01:39;6.82;;;3.75;;
49626;SDS011;35527;54.616;39.786;2023-06-26T11:04:48;6.43;;;3.70;;
49626;SDS011;35527;54.616;39.786;2023-06-26T11:11:06;7.40;;;3.80;;
49626;SDS011;35527;54.616;39.786;2023-06-26T11:14:10;6.22;;;3.83;;
49626;SDS011;35527;54.616;39.786;2023-06-26T11:17:14;6.03;;;3.63;;
49626;SDS011;35527;54.616;39.786;2023-06-26T11:20:21;6.90;;;3.78;;
49626;SDS011;35527;54.616;39.786;2023-06-26T11:23:27;5.75;;;3.53;;
49626;SDS011;35527;54.616;39.786;2023-06-26T11:26:37;5.30;;;3.40;;
49626;SDS011;35527;54.616;39.786;2023-06-26T11:29:47;6.35;;;3.95;;
49626;SDS011;35527;54.616;39.786;2023-06-26T11:32:51;6.47;;;4.18;;
49626;SDS011;35527;54.616;39.786;2023-06-26T11:35:56;5.93;;;3.10;;
49626;SDS011;35527;54.616;39.786;2023-06-26T11:39:13;4.90;;;3.47;;
49626;SDS011;35527;54.616;39.786;2023-06-26T11:42:24;5.18;;;3.40;;
49626;SDS011;35527;54.616;39.786;2023-06-26T11:45:28;6.13;;;3.60;;
49626;SDS011;35527;54.616;39.786;2023-06-26T11:48:32;5.72;;;3.35;;
49626;SDS011;35527;54.616;39.786;2023-06-26T11:51:37;5.15;;;3.63;;
49626;SDS011;35527;54.616;39.786;2023-06-26T11:54:41;6.90;;;3.80;;
49626;SDS011;35527;54.616;39.786;2023-06-26T11:57:48;5.90;;;3.33;;
49626;SDS011;35527;54.616;39.786;2023-06-26T12:00:53;5.68;;;3.65;;
49626;SDS011;35527;54.616;39.786;2023-06-26T12:04:00;6.00;;;3.95;;
49626;SDS011;35527;54.616;39.786;2023-06-26T12:07:07;5.78;;;3.55;;
49626;SDS011;35527;54.616;39.786;2023-06-26T12:10:13;6.65;;;3.65;;
49626;SDS011;35527;54.616;39.786;2023-06-26T12:13:17;6.75;;;3.75;;
49626;SDS011;35527;54.616;39.786;2023-06-26T12:16:23;7.43;;;4.07;;
49626;SDS011;35527;54.616;39.786;2023-06-26T12:19:33;8.07;;;3.97;;
49626;SDS011;35527;54.616;39.786;2023-06-26T12:22:59;5.60;;;3.63;;
49626;SDS011;35527;54.616;39.786;2023-06-26T12:26:18;5.30;;;3.63;;
49626;SDS011;35527;54.616;39.786;2023-06-26T12:29:33;5.65;;;3.60;;
49626;SDS011;35527;54.616;39.786;2023-06-26T12:32:37;6.55;;;3.50;;
49626;SDS011;35527;54.616;39.786;2023-06-26T12:38:45;6.18;;;3.95;;
49626;SDS011;35527;54.616;39.786;2023-06-26T12:41:52;5.00;;;3.30;;
49626;SDS011;35527;54.616;39.786;2023-06-26T12:45:10;5.88;;;3.38;;
49626;SDS011;35527;54.616;39.786;2023-06-26T12:48:17;6.25;;;3.80;;
49626;SDS011;35527;54.616;39.786;2023-06-26T12:51:20;6.28;;;3.80;;
49626;SDS011;35527;54.616;39.786;2023-06-26T12:54:29;5.25;;;3.38;;
49626;SDS011;35527;54.616;39.786;2023-06-26T12:57:36;5.47;;;3.40;;
49626;SDS011;35527;54.616;39.786;2023-06-26T13:00:39;5.50;;;3.45;;
49626;SDS011;35527;54.616;39.786;2023-06-26T13:03:43;5.20;;;3.22;;
49626;SDS011;35527;54.616;39.786;2023-06-26T13:06:46;8.82;;;3.70;;
49626;SDS011;35527;54.616;39.786;2023-06-26T13:09:51;5.47;;;3.42;;
49626;SDS011;35527;54.616;39.786;2023-06-26T13:12:54;7.05;;;3.83;;
49626;SDS011;35527;54.616;39.786;2023-06-26T13:15:57;6.15;;;3.42;;
49626;SDS011;35527;54.616;39.786;2023-06-26T13:19:04;5.30;;;3.47;;
49626;SDS011;35527;54.616;39.786;2023-06-26T13:22:09;5.78;;;3.55;;
49626;SDS011;35527;54.616;39.786;2023-06-26T13:25:12;5.43;;;3.22;;
49626;SDS011;35527;54.616;39.786;2023-06-26T13:28:16;6.07;;;3.55;;
49626;SDS011;35527;54.616;39.786;2023-06-26T13:31:22;6.95;;;3.47;;
49626;SDS011;35527;54.616;39.786;2023-06-26T13:34:27;5.30;;;2.92;;
49626;SDS011;35527;54.616;39.786;2023-06-26T13:37:33;9.02;;;3.65;;
49626;SDS011;35527;54.616;39.786;2023-06-26T13:40:36;6.10;;;3.47;;
49626;SDS011;35527;54.616;39.786;2023-06-26T13:43:39;6.45;;;3.63;;
49626;SDS011;35527;54.616;39.786;2023-06-26T13:46:42;5.35;;;3.35;;
49626;SDS011;35527;54.616;39.786;2023-06-26T13:49:46;10.13;;;3.63;;
49626;SDS011;35527;54.616;39.786;2023-06-26T13:52:48;4.90;;;3.20;;
49626;SDS011;35527;54.616;39.786;2023-06-26T13:55:52;5.63;;;3.08;;
49626;SDS011;35527;54.616;39.786;2023-06-26T13:58:55;6.28;;;3.45;;
49626;SDS011;35527;54.616;39.786;2023-06-26T14:01:58;5.80;;;3.30;;
49626;SDS011;35527;54.616;39.786;2023-06-26T14:05:01;6.85;;;3.50;;
49626;SDS011;35527;54.616;39.786;2023-06-26T14:08:06;6.65;;;3.92;;
49626;SDS011;35527;54.616;39.786;2023-06-26T14:11:11;6.30;;;3.20;;
49626;SDS011;35527;54.616;39.786;2023-06-26T14:14:14;7.60;;;3.53;;
49626;SDS011;35527;54.616;39.786;2023-06-26T14:17:17;7.25;;;3.47;;
49626;SDS011;35527;54.616;39.786;2023-06-26T14:20:22;6.03;;;3.80;;
49626;SDS011;35527;54.616;39.786;2023-06-26T14:23:28;6.53;;;3.33;;
49626;SDS011;35527;54.616;39.786;2023-06-26T14:26:31;7.05;;;3.35;;
49626;SDS011;35527;54.616;39.786;2023-06-26T14:29:36;6.45;;;3.40;;
49626;SDS011;35527;54.616;39.786;2023-06-26T14:32:40;5.97;;;3.60;;
49626;SDS011;35527;54.616;39.786;2023-06-26T14:35:43;5.70;;;3.30;;
49626;SDS011;35527;54.616;39.786;2023-06-26T14:38:48;8.32;;;3.33;;
49626;SDS011;35527;54.616;39.786;2023-06-26T14:41:53;7.90;;;3.70;;
49626;SDS011;35527;54.616;39.786;2023-06-26T14:44:59;8.15;;;3.85;;
49626;SDS011;35527;54.616;39.786;2023-06-26T14:48:03;7.10;;;3.20;;
49626;SDS011;35527;54.616;39.786;2023-06-26T14:51:07;13.07;;;3.95;;
49626;SDS011;35527;54.616;39.786;2023-06-26T14:54:10;9.88;;;3.88;;
49626;SDS011;35527;54.616;39.786;2023-06-26T14:57:16;8.07;;;3.83;;
49626;SDS011;35527;54.616;39.786;2023-06-26T15:00:19;8.45;;;3.80;;
49626;SDS011;35527;54.616;39.786;2023-06-26T15:03:23;7.15;;;3.83;;
49626;SDS011;35527;54.616;39.786;2023-06-26T15:06:25;7.15;;;3.83;;
49626;SDS011;35527;54.616;39.786;2023-06-26T15:09:29;7.28;;;3.90;;
49626;SDS011;35527;54.616;39.786;2023-06-26T15:12:33;9.23;;;3.70;;
49626;SDS011;35527;54.616;39.786;2023-06-26T15:15:35;5.90;;;3.38;;
49626;SDS011;35527;54.616;39.786;2023-06-26T15:18:38;9.00;;;3.65;;
49626;SDS011;35527;54.616;39.786;2023-06-26T15:21:42;6.63;;;3.53;;
49626;SDS011;35527;54.616;39.786;2023-06-26T15:24:46;7.53;;;3.25;;
49626;SDS011;35527;54.616;39.786;2023-06-26T15:27:50;7.10;;;3.28;;
49626;SDS011;35527;54.616;39.786;2023-06-26T15:30:53;6.60;;;3.55;;
49626;SDS011;35527;54.616;39.786;2023-06-26T15:33:56;5.20;;;3.25;;
49626;SDS011;35527;54.616;39.786;2023-06-26T15:37:01;7.18;;;3.50;;
49626;SDS011;35527;54.616;39.786;2023-06-26T15:40:06;7.97;;;3.72;;
49626;SDS011;35527;54.616;39.786;2023-06-26T15:43:10;5.27;;;3.27;;
49626;SDS011;35527;54.616;39.786;2023-06-26T15:46:14;7.22;;;3.70;;
49626;SDS011;35527;54.616;39.786;2023-06-26T15:49:18;7.18;;;3.17;;
49626;SDS011;35527;54.616;39.786;2023-06-26T15:52:21;5.72;;;3.20;;
49626;SDS011;35527;54.616;39.786;2023-06-26T15:55:24;7.32;;;3.10;;
49626;SDS011;35527;54.616;39.786;2023-06-26T15:58:29;6.73;;;3.40;;
49626;SDS011;35527;54.616;39.786;2023-06-26T16:01:32;7.30;;;3.10;;
49626;SDS011;35527;54.616;39.786;2023-06-26T16:04:37;8.38;;;3.05;;
49626;SDS011;35527;54.616;39.786;2023-06-26T16:07:40;8.40;;;3.67;;
49626;SDS011;35527;54.616;39.786;2023-06-26T16:10:56;5.57;;;3.13;;
49626;SDS011;35527;54.616;39.786;2023-06-26T16:14:03;6.38;;;3.42;;
49626;SDS011;35527;54.616;39.786;2023-06-26T16:17:07;5.32;;;3.00;;
49626;SDS011;35527;54.616;39.786;2023-06-26T16:20:10;5.85;;;3.22;;
49626;SDS011;35527;54.616;39.786;2023-06-26T16:23:15;5.80;;;3.22;;
49626;SDS011;35527;54.616;39.786;2023-06-26T16:26:18;7.20;;;3.38;;
49626;SDS011;35527;54.616;39.786;2023-06-26T16:29:21;6.35;;;2.97;;
49626;SDS011;35527;54.616;39.786;2023-06-26T16:32:26;6.68;;;3.17;;
49626;SDS011;35527;54.616;39.786;2023-06-26T16:35:37;5.50;;;3.22;;
49626;SDS011;35527;54.616;39.786;2023-06-26T16:38:43;6.35;;;3.65;;
49626;SDS011;35527;54.616;39.786;2023-06-26T16:41:46;6.63;;;3.60;;
49626;SDS011;35527;54.616;39.786;2023-06-26T16:44:56;6.75;;;3.60;;
49626;SDS011;35527;54.616;39.786;2023-06-26T16:48:03;7.10;;;3.63;;
49626;SDS011;35527;54.616;39.786;2023-06-26T16:51:09;8.03;;;3.70;;
49626;SDS011;35527;54.616;39.786;2023-06-26T16:54:16;7.20;;;3.90;;
49626;SDS011;35527;54.616;39.786;2023-06-26T16:57:21;6.88;;;3.60;;
49626;SDS011;35527;54.616;39.786;2023-06-26T17:00:28;5.97;;;3.78;;
49626;SDS011;35527;54.616;39.786;2023-06-26T17:03:31;6.68;;;4.00;;
49626;SDS011;35527;54.616;39.786;2023-06-26T17:09:40;7.88;;;4.40;;
49626;SDS011;35527;54.616;39.786;2023-06-26T17:12:44;9.93;;;3.97;;
49626;SDS011;35527;54.616;39.786;2023-06-26T17:15:47;6.97;;;3.97;;
49626;SDS011;35527;54.616;39.786;2023-06-26T17:18:50;6.95;;;3.78;;
49626;SDS011;35527;54.616;39.786;2023-06-26T17:21:53;6.80;;;3.60;;
49626;SDS011;35527;54.616;39.786;2023-06-26T17:24:58;6.15;;;3.50;;
49626;SDS011;35527;54.616;39.786;2023-06-26T17:28:06;6.30;;;3.60;;
49626;SDS011;35527;54.616;39.786;2023-06-26T17:31:12;5.35;;;3.33;;
49626;SDS011;35527;54.616;39.786;2023-06-26T17:34:16;7.00;;;3.67;;
49626;SDS011;35527;54.616;39.786;2023-06-26T17:37:21;8.17;;;3.77;;
49626;SDS011;35527;54.616;39.786;2023-06-26T17:40:27;7.25;;;4.00;;
49626;SDS011;35527;54.616;39.786;2023-06-26T17:43:34;7.75;;;3.92;;
49626;SDS011;35527;54.616;39.786;2023-06-26T17:46:39;11.23;;;5.72;;
49626;SDS011;35527;54.616;39.786;2023-06-26T17:49:46;7.63;;;4.77;;
49626;SDS011;35527;54.616;39.786;2023-06-26T17:52:50;8.55;;;4.60;;
49626;SDS011;35527;54.616;39.786;2023-06-26T17:55:53;7.97;;;4.10;;
49626;SDS011;35527;54.616;39.786;2023-06-26T17:58:55;7.35;;;4.05;;
49626;SDS011;35527;54.616;39.786;2023-06-26T18:02:00;7.47;;;3.97;;
49626;SDS011;35527;54.616;39.786;2023-06-26T18:05:03;7.75;;;4.05;;
49626;SDS011;35527;54.616;39.786;2023-06-26T18:08:06;7.22;;;3.92;;
49626;SDS011;35527;54.616;39.786;2023-06-26T18:11:10;6.40;;;3.72;;
49626;SDS011;35527;54.616;39.786;2023-06-26T18:14:13;7.22;;;3.65;;
49626;SDS011;35527;54.616;39.786;2023-06-26T18:17:17;9.20;;;4.03;;
49626;SDS011;35527;54.616;39.786;2023-06-26T18:20:20;7.07;;;3.40;;
49626;SDS011;35527;54.616;39.786;2023-06-26T18:23:22;8.07;;;3.70;;
49626;SDS011;35527;54.616;39.786;2023-06-26T18:26:27;8.55;;;3.83;;
49626;SDS011;35527;54.616;39.786;2023-06-26T18:29:31;7.38;;;3.83;;
49626;SDS011;35527;54.616;39.786;2023-06-26T18:32:35;7.75;;;3.60;;
49626;SDS011;35527;54.616;39.786;2023-06-26T18:35:38;5.47;;;3.60;;
49626;SDS011;35527;54.616;39.786;2023-06-26T18:38:42;8.30;;;3.78;;
49626;SDS011;35527;54.616;39.786;2023-06-26T18:41:45;6.70;;;4.00;;
49626;SDS011;35527;54.616;39.786;2023-06-26T18:44:51;7.82;;;3.60;;
49626;SDS011;35527;54.616;39.786;2023-06-26T18:47:54;8.32;;;3.70;;
49626;SDS011;35527;54.616;39.786;2023-06-26T18:51:00;5.90;;;3.45;;